createdAt,value
2022-11-14T00:02:30.171Z,68.50
2022-11-14T00:05:16.085Z,62.10
2022-11-14T00:08:08.477Z,54.10
2022-11-14T00:10:58.584Z,64.00
2022-11-14T00:13:52.186Z,61.70
2022-11-14T00:17:11.197Z,62.60
2022-11-14T00:20:33.911Z,55.10
2022-11-14T00:23:39.129Z,56.30
2022-11-14T00:26:36.467Z,52.60
2022-11-14T00:29:45.395Z,52.70
2022-11-14T00:32:44.909Z,47.40
2022-11-14T00:35:45.145Z,44.70
2022-11-14T00:39:05.732Z,50.20
2022-11-14T00:41:56.394Z,49.60
2022-11-14T00:45:08.173Z,47.80
2022-11-14T00:48:11.653Z,42.30
2022-11-14T00:51:34.724Z,53.90
2022-11-14T00:54:43.216Z,40.60
2022-11-14T00:57:54.525Z,38.80
2022-11-14T01:04:31.756Z,43.60
2022-11-14T01:10:39.605Z,51.10
2022-11-14T01:13:46.923Z,42.20
2022-11-14T01:16:45.104Z,42.50
2022-11-14T01:19:47.096Z,39.90
2022-11-14T01:22:54.793Z,48.90
2022-11-14T01:26:00.192Z,40.40
2022-11-14T01:28:54.009Z,50.50
2022-11-14T01:31:48.082Z,44.90
2022-11-14T01:34:45.599Z,47.90
2022-11-14T01:37:37.506Z,39.50
2022-11-14T01:40:39.191Z,40.40
2022-11-14T01:43:43.322Z,45.30
2022-11-14T01:46:58.162Z,51.30
2022-11-14T01:49:55.496Z,59.00
2022-11-14T01:52:58.702Z,52.70
2022-11-14T01:55:51.242Z,54.00
2022-11-14T01:58:49.474Z,64.50
2022-11-14T02:01:40.111Z,58.70
2022-11-14T02:04:41.298Z,49.20
2022-11-14T02:07:34.273Z,55.80
2022-11-14T02:10:26.105Z,60.50
2022-11-14T02:13:19.509Z,63.00
2022-11-14T02:16:13.909Z,56.00
2022-11-14T02:19:08.262Z,60.50
2022-11-14T02:22:02.232Z,51.20
2022-11-14T02:24:55.261Z,51.00
2022-11-14T02:27:42.337Z,54.10
2022-11-14T02:30:36.275Z,46.10
2022-11-14T02:33:24.282Z,48.60
2022-11-14T02:36:28.742Z,51.60
2022-11-14T02:39:31.329Z,53.70
2022-11-14T02:42:33.654Z,45.90
2022-11-14T02:45:25.116Z,38.20
2022-11-14T02:48:19.805Z,38.80
2022-11-14T02:51:14.196Z,52.50
2022-11-14T02:54:25.429Z,42.00
2022-11-14T02:57:20.626Z,36.10
2022-11-14T03:03:12.564Z,39.90
2022-11-14T03:06:09.112Z,35.40
2022-11-14T03:09:54.786Z,46.60
2022-11-14T03:13:02.753Z,39.90
2022-11-14T03:16:07.396Z,32.00
2022-11-14T03:18:58.152Z,31.60
2022-11-14T03:21:43.771Z,31.40
2022-11-14T03:24:36.653Z,29.30
2022-11-14T03:27:33.157Z,27.50
2022-11-14T03:30:33.691Z,25.20
2022-11-14T03:33:31.727Z,25.60
2022-11-14T03:36:28.260Z,28.10
2022-11-14T03:39:29.490Z,28.60
2022-11-14T03:42:16.921Z,29.30
2022-11-14T03:45:18.617Z,29.00
2022-11-14T03:48:28.880Z,26.70
2022-11-14T03:51:37.458Z,26.00
2022-11-14T03:54:44.338Z,25.80
2022-11-14T03:58:14.648Z,23.20
2022-11-14T04:01:20.153Z,22.30
2022-11-14T04:04:23.594Z,47.00
2022-11-14T04:07:19.868Z,23.30
2022-11-14T04:10:08.757Z,13.10
2022-11-14T04:13:00.164Z,14.50
2022-11-14T04:15:59.034Z,23.10
2022-11-14T04:19:00.984Z,21.40
2022-11-14T04:21:53.207Z,20.40
2022-11-14T04:24:37.823Z,16.00
2022-11-14T04:27:31.496Z,18.60
2022-11-14T04:30:19.909Z,27.90
2022-11-14T04:33:10.079Z,14.70
2022-11-14T04:36:01.258Z,19.80
2022-11-14T04:38:52.705Z,22.30
2022-11-14T04:41:45.601Z,20.50
2022-11-14T04:44:55.547Z,25.80
2022-11-14T04:47:48.162Z,19.70
2022-11-14T04:50:46.454Z,18.90
2022-11-14T04:53:34.783Z,14.20
2022-11-14T04:56:27.625Z,20.90
2022-11-14T04:59:18.311Z,14.90
2022-11-14T05:02:08.443Z,15.60
2022-11-14T05:04:53.514Z,21.70
2022-11-14T05:07:46.448Z,13.30
2022-11-14T05:10:41.591Z,23.40
2022-11-14T05:13:41.354Z,18.70
2022-11-14T05:16:29.952Z,15.20
2022-11-14T05:19:22.730Z,20.50
2022-11-14T05:22:09.981Z,17.20
2022-11-14T05:24:58.183Z,11.60
2022-11-14T05:27:42.048Z,13.50
2022-11-14T05:30:31.721Z,13.60
2022-11-14T05:33:27.706Z,15.70
2022-11-14T05:36:17.385Z,33.00
2022-11-14T05:39:19.815Z,13.60
2022-11-14T05:42:27.678Z,15.80
2022-11-14T05:46:05.289Z,14.80
2022-11-14T05:49:09.048Z,12.00
2022-11-14T05:51:53.955Z,11.70
2022-11-14T05:54:43.696Z,16.40
2022-11-14T05:57:56.161Z,16.80
2022-11-14T06:00:57.972Z,15.20
2022-11-14T06:04:01.258Z,15.60
2022-11-14T06:06:55.046Z,20.50
2022-11-14T06:13:25.893Z,15.70
2022-11-14T06:16:17.134Z,16.30
2022-11-14T06:19:02.891Z,19.30
2022-11-14T06:21:54.877Z,18.80
2022-11-14T06:24:52.095Z,25.60
2022-11-14T06:27:40.982Z,24.40
2022-11-14T06:30:39.170Z,23.70
2022-11-14T06:33:38.717Z,27.60
2022-11-14T06:36:22.911Z,23.30
2022-11-14T06:39:08.307Z,17.50
2022-11-14T06:41:51.007Z,20.70
2022-11-14T06:44:34.637Z,20.60
2022-11-14T06:47:18.345Z,20.60
2022-11-14T06:50:00.920Z,28.60
2022-11-14T06:52:44.689Z,18.00
2022-11-14T06:55:28.382Z,20.40
2022-11-14T06:58:12.091Z,20.70
2022-11-14T07:00:56.785Z,19.70
2022-11-14T07:03:44.791Z,23.80
2022-11-14T07:06:30.381Z,18.10
2022-11-14T07:09:14.152Z,36.60
2022-11-14T07:11:58.910Z,22.70
2022-11-14T07:14:48.273Z,28.60
2022-11-14T07:17:31.580Z,29.50
2022-11-14T07:20:18.408Z,21.20
2022-11-14T07:23:02.030Z,18.10
2022-11-14T07:25:45.782Z,17.00
2022-11-14T07:28:30.220Z,16.40
2022-11-14T07:31:17.823Z,14.70
2022-11-14T07:34:01.472Z,19.80
2022-11-14T07:36:45.241Z,19.70
2022-11-14T07:39:34.284Z,18.60
2022-11-14T07:42:18.251Z,13.10
2022-11-14T07:45:01.025Z,24.20
2022-11-14T07:50:30.298Z,17.40
2022-11-14T07:53:15.473Z,21.90
2022-11-14T07:56:05.123Z,20.90
2022-11-14T07:58:48.751Z,15.60
2022-11-14T08:01:33.031Z,19.60
2022-11-14T08:04:18.050Z,18.30
2022-11-14T08:07:02.466Z,13.70
2022-11-14T08:09:47.917Z,12.10
2022-11-14T08:12:32.162Z,14.10
2022-11-14T08:15:16.057Z,12.60
2022-11-14T08:18:01.831Z,13.80
2022-11-14T08:20:45.772Z,19.00
2022-11-14T08:26:13.703Z,12.10
2022-11-14T08:28:57.595Z,10.20
2022-11-14T08:31:41.849Z,10.40
2022-11-14T08:34:26.375Z,10.10
2022-11-14T08:37:11.422Z,10.50
2022-11-14T08:39:59.151Z,9.50
2022-11-14T08:43:02.489Z,7.90
2022-11-14T08:45:49.858Z,7.90
2022-11-14T08:51:16.921Z,8.90
2022-11-14T08:54:01.792Z,22.10
2022-11-14T08:56:46.619Z,11.10
2022-11-14T08:59:31.136Z,8.20
2022-11-14T09:02:15.232Z,11.10
2022-11-14T09:05:00.074Z,7.70
2022-11-14T09:07:43.865Z,12.80
2022-11-14T09:10:28.132Z,9.00
2022-11-14T09:15:55.503Z,8.80
2022-11-14T09:18:39.215Z,12.50
2022-11-14T09:21:23.858Z,8.20
2022-11-14T09:24:07.688Z,8.80
2022-11-14T09:29:40.921Z,9.10
2022-11-14T09:32:24.586Z,9.30
2022-11-14T09:35:08.385Z,9.20
2022-11-14T09:37:59.935Z,10.30
2022-11-14T09:40:57.905Z,11.60
2022-11-14T09:44:20.065Z,8.60
2022-11-14T09:47:10.933Z,10.30
2022-11-14T09:50:02.932Z,22.70
2022-11-14T09:52:53.863Z,13.50
2022-11-14T09:55:37.737Z,17.90
2022-11-14T10:01:30.938Z,19.20
2022-11-14T10:04:38.613Z,15.20
2022-11-14T10:07:25.279Z,24.30
2022-11-14T10:10:24.742Z,21.80
2022-11-14T10:13:41.183Z,19.80
2022-11-14T10:16:32.717Z,42.40
2022-11-14T10:19:43.842Z,29.80
2022-11-14T10:23:03.797Z,28.30
2022-11-14T10:25:48.184Z,25.70
2022-11-14T10:28:35.470Z,26.30
2022-11-14T10:31:28.763Z,25.50
2022-11-14T10:34:33.070Z,25.40
2022-11-14T10:37:29.728Z,25.90
2022-11-14T10:40:34.328Z,26.10
2022-11-14T10:43:46.780Z,21.10
2022-11-14T10:46:36.558Z,21.00
2022-11-14T10:49:25.957Z,18.70
2022-11-14T10:52:16.560Z,22.80
2022-11-14T10:55:06.999Z,16.80
2022-11-14T10:57:50.769Z,16.90
2022-11-14T11:03:18.219Z,15.30
2022-11-14T11:06:03.119Z,14.10
2022-11-14T11:09:02.906Z,14.00
2022-11-14T11:11:55.836Z,22.70
2022-11-14T11:14:44.938Z,15.20
2022-11-14T11:17:35.066Z,15.80
2022-11-14T11:20:28.370Z,20.70
2022-11-14T11:23:12.044Z,16.30
2022-11-14T11:26:28.320Z,21.40
2022-11-14T11:29:11.990Z,22.60
2022-11-14T11:31:58.361Z,17.50
2022-11-14T11:34:44.785Z,17.30
2022-11-14T11:37:40.086Z,21.40
2022-11-14T11:40:27.115Z,17.50
2022-11-14T11:43:52.551Z,16.90
2022-11-14T11:46:51.581Z,17.00
2022-11-14T11:49:54.283Z,17.00
2022-11-14T11:52:55.505Z,21.30
2022-11-14T11:55:43.970Z,17.20
2022-11-14T11:58:46.248Z,23.00
2022-11-14T12:01:30.083Z,17.60
2022-11-14T12:04:14.062Z,25.60
2022-11-14T12:07:19.509Z,35.90
2022-11-14T12:10:13.552Z,18.30
2022-11-14T12:13:13.243Z,18.60
2022-11-14T12:16:06.456Z,40.00
2022-11-14T12:19:09.207Z,23.90
2022-11-14T12:22:14.874Z,24.80
2022-11-14T12:24:58.530Z,21.20
2022-11-14T12:28:01.330Z,24.30
2022-11-14T12:30:53.128Z,21.80
2022-11-14T12:33:40.339Z,42.80
2022-11-14T12:36:31.044Z,27.50
2022-11-14T12:39:30.377Z,24.90
2022-11-14T12:42:18.856Z,28.30
2022-11-14T12:45:02.515Z,23.90
2022-11-14T12:48:22.129Z,26.00
2022-11-14T12:51:26.120Z,21.60
2022-11-14T12:54:46.107Z,22.50
2022-11-14T12:58:03.906Z,23.10
2022-11-14T13:00:50.875Z,20.90
2022-11-14T13:03:37.399Z,18.40
2022-11-14T13:06:41.334Z,21.20
2022-11-14T13:09:56.948Z,25.40
2022-11-14T13:13:33.325Z,25.90
2022-11-14T13:16:46.035Z,26.00
2022-11-14T13:19:45.872Z,22.70
2022-11-14T13:22:38.435Z,26.80
2022-11-14T13:25:23.850Z,29.20
2022-11-14T13:28:40.564Z,30.00
2022-11-14T13:31:42.063Z,30.50
2022-11-14T13:34:41.726Z,29.50
2022-11-14T13:37:45.479Z,35.80
2022-11-14T13:40:43.568Z,29.10
2022-11-14T13:43:50.413Z,30.60
2022-11-14T13:46:52.096Z,27.30
2022-11-14T13:49:38.808Z,32.90
2022-11-14T13:52:27.870Z,28.20
2022-11-14T13:55:47.855Z,33.40
2022-11-14T13:59:02.302Z,34.20
2022-11-14T14:02:19.525Z,33.40
2022-11-14T14:05:20.792Z,36.30
2022-11-14T14:08:21.408Z,37.30
2022-11-14T14:11:17.288Z,35.10
2022-11-14T14:14:19.893Z,30.80
2022-11-14T14:17:27.611Z,42.00
2022-11-14T14:20:18.449Z,29.70
2022-11-14T14:23:12.868Z,34.70
2022-11-14T14:26:16.480Z,32.50
2022-11-14T14:29:13.578Z,34.80
2022-11-14T14:32:10.820Z,32.60
2022-11-14T14:34:57.016Z,34.70
2022-11-14T14:37:51.383Z,31.70
2022-11-14T14:40:37.821Z,31.80
2022-11-14T14:43:34.862Z,36.00
2022-11-14T14:46:35.620Z,34.40
2022-11-14T14:49:24.410Z,35.60
2022-11-14T14:52:40.115Z,28.50
2022-11-14T14:55:50.944Z,30.70
2022-11-14T14:58:35.756Z,31.50
2022-11-14T15:01:35.869Z,33.00
2022-11-14T15:04:21.961Z,31.70
2022-11-14T15:07:05.851Z,31.00
2022-11-14T15:12:36.291Z,34.10
2022-11-14T15:15:21.873Z,36.60
2022-11-14T15:18:08.784Z,34.20
2022-11-14T15:21:15.379Z,35.30
2022-11-14T15:24:16.125Z,37.40
2022-11-14T15:27:23.964Z,40.50
2022-11-14T15:30:35.901Z,40.20
2022-11-14T15:33:28.697Z,36.80
2022-11-14T15:36:19.985Z,49.70
2022-11-14T15:39:26.776Z,34.10
2022-11-14T15:42:17.117Z,40.80
2022-11-14T15:45:00.825Z,44.20
2022-11-14T15:50:31.823Z,36.60
2022-11-14T15:53:23.850Z,38.10
2022-11-14T15:56:12.029Z,40.00
2022-11-14T15:58:56.140Z,48.30
2022-11-14T16:01:40.749Z,45.60
2022-11-14T16:04:30.456Z,42.00
2022-11-14T16:07:16.665Z,39.50
2022-11-14T16:10:00.510Z,56.20
2022-11-14T16:12:48.083Z,37.70
2022-11-14T16:15:37.343Z,39.20
2022-11-14T16:18:20.431Z,39.30
2022-11-14T16:21:04.147Z,39.80
2022-11-14T16:23:50.165Z,41.50
2022-11-14T16:26:34.006Z,67.30
2022-11-14T16:29:18.880Z,37.70
2022-11-14T16:34:49.681Z,40.60
2022-11-14T16:37:33.381Z,58.60
2022-11-14T16:40:29.210Z,43.30
2022-11-14T16:43:14.783Z,42.80
2022-11-14T16:45:58.554Z,39.60
2022-11-14T16:54:35.119Z,48.10
2022-11-14T16:57:23.730Z,43.10
2022-11-14T17:00:25.679Z,48.40
2022-11-14T17:03:13.756Z,46.30
2022-11-14T17:06:09.542Z,47.30
2022-11-14T17:09:06.956Z,52.50
2022-11-14T17:12:44.977Z,48.40
2022-11-14T17:19:31.766Z,48.90
2022-11-14T17:22:26.343Z,45.50
2022-11-14T17:29:20.099Z,42.40
2022-11-14T17:32:10.959Z,39.00
2022-11-14T17:35:02.148Z,44.10
2022-11-14T17:37:49.090Z,50.80
2022-11-14T17:40:42.816Z,49.30
2022-11-14T17:50:53.048Z,56.00
2022-11-14T17:53:57.755Z,49.40
2022-11-14T17:57:02.824Z,34.90
2022-11-14T17:59:47.926Z,42.50
2022-11-14T18:02:43.863Z,53.60
2022-11-14T18:05:28.884Z,48.20
2022-11-14T18:08:19.843Z,40.30
2022-11-14T18:11:17.577Z,44.50
2022-11-14T18:14:01.408Z,45.80
2022-11-14T18:19:50.860Z,57.80
2022-11-14T18:26:35.805Z,61.30
2022-11-14T18:29:19.730Z,58.90
2022-11-14T18:35:01.593Z,61.50
2022-11-14T18:37:49.760Z,62.70
2022-11-14T18:40:33.660Z,60.00
2022-11-14T18:43:34.451Z,64.10
2022-11-14T18:46:51.686Z,71.40
2022-11-14T18:49:40.912Z,81.90
2022-11-14T18:52:34.650Z,77.30
2022-11-14T18:55:18.393Z,74.70
2022-11-14T18:58:24.012Z,74.30
2022-11-14T19:01:21.900Z,72.10
2022-11-14T19:04:21.657Z,74.30
2022-11-14T19:07:05.621Z,74.10
2022-11-14T19:12:37.032Z,97.60
2022-11-14T19:15:24.861Z,84.50
2022-11-14T19:18:11.213Z,98.30
2022-11-14T19:24:00.981Z,65.00
2022-11-14T19:26:53.120Z,61.60
2022-11-14T19:29:36.985Z,81.00
2022-11-14T19:35:20.250Z,61.00
2022-11-14T19:38:04.996Z,66.90
2022-11-14T19:40:51.222Z,82.90
2022-11-14T19:43:46.595Z,78.80
2022-11-14T19:46:55.353Z,78.80
2022-11-14T19:49:40.829Z,55.80
2022-11-14T19:52:30.853Z,76.00
2022-11-14T19:55:25.939Z,77.10
2022-11-14T19:58:10.123Z,59.40
2022-11-14T20:01:10.409Z,66.90
2022-11-14T20:04:04.954Z,70.20
2022-11-14T20:07:18.951Z,63.40
2022-11-14T20:10:13.225Z,67.50
2022-11-14T20:13:08.905Z,58.30
2022-11-14T20:16:10.146Z,69.50
2022-11-14T20:19:05.566Z,77.80
2022-11-14T20:21:59.625Z,67.20
2022-11-14T20:24:48.900Z,68.40
2022-11-14T20:32:47.976Z,68.60
2022-11-14T20:35:51.625Z,68.10
2022-11-14T20:38:56.194Z,65.80
2022-11-14T20:44:50.175Z,47.00
2022-11-14T20:47:54.011Z,76.50
2022-11-14T20:51:30.524Z,61.20
2022-11-14T20:54:53.868Z,70.10
2022-11-14T21:01:24.482Z,67.90
2022-11-14T21:04:32.820Z,67.40
2022-11-14T21:07:55.897Z,75.20
2022-11-14T21:11:30.868Z,68.90
2022-11-14T21:15:28.520Z,49.70
2022-11-14T21:18:50.548Z,68.60
2022-11-14T21:21:52.530Z,77.50
2022-11-14T21:28:27.704Z,62.70
2022-11-14T21:35:21.017Z,68.30
2022-11-14T21:38:16.602Z,57.20
2022-11-14T21:41:26.801Z,61.40
2022-11-14T21:55:23.014Z,66.10
2022-11-14T22:06:25.338Z,75.10
2022-11-14T22:09:45.481Z,62.80
2022-11-14T22:13:13.813Z,67.10
2022-11-14T22:19:16.693Z,53.70
2022-11-14T22:22:09.857Z,62.30
2022-11-14T22:25:19.221Z,62.30
2022-11-14T22:29:03.037Z,61.00
2022-11-14T22:32:22.477Z,59.80
2022-11-14T22:42:38.617Z,63.10
2022-11-14T22:45:55.689Z,70.10
2022-11-14T22:49:09.515Z,60.80
2022-11-14T22:56:09.356Z,64.10
2022-11-14T22:59:42.314Z,64.50
2022-11-14T23:02:46.460Z,43.30
2022-11-14T23:06:12.998Z,58.60
2022-11-14T23:09:58.696Z,60.70
2022-11-14T23:16:27.387Z,48.90
2022-11-14T23:23:31.359Z,60.00
2022-11-14T23:26:43.800Z,61.00
2022-11-14T23:29:56.796Z,63.50
2022-11-14T23:33:47.222Z,57.60
2022-11-14T23:36:51.941Z,58.50
2022-11-14T23:43:47.535Z,68.30
2022-11-14T23:46:51.144Z,65.40
2022-11-14T23:49:38.931Z,49.50
2022-11-14T23:52:54.774Z,56.40
2022-11-14T23:56:11.279Z,59.10
2022-11-14T23:59:22.039Z,71.40
